KFATKTVL

Guest
Details From KFAT - Fresno Air Terminal
To KTVL - South Lake Tahoe
Flight Number -
Tags generated
Created
Modified
Stats Distance 128 nm / 237 km
Max Altitude 10,900 ft / 3,322 m
Waypoints 3
Social Downloads 0
Likes 0
Share VATSIM

Download

Looking for another format? Having issues loading an existing format? Contact us
Advertisement - Login to hide

Notes

Basic altitude profile: - Ascent Rate: 2500ft/min - Ascent Speed: 250kts - Cruise Altitude: 35000ft - Cruise Speed: 420kts - Descent Rate: 1500ft/min - Descent Speed: 250kts

Route

KFAT COGOL KTVL

ID Type Via Altitude Latitude Longitude Leg Dist Tot Dist Heading (true) Name
O KFAT APT - 0 ft / 0 m 36.77651˚ -119.71897˚ - 0 nm - Fresno Air Terminal
COGOL FIX - 10,900 ft / 3,322 m 37.28475˚ -119.79181˚ 30 nm 30 nm 353° / 353° -
O KTVL APT - 0 ft / 0 m 38.89388˚ -119.99533˚ 97 nm 127 nm 354° / 354° South Lake Tahoe

Altitude Profile

Advertisement - Login to hide

KFAT

Details ICAO KFAT (FAT)
Name Fresno Air Terminal
Region United States
Timezone America/Los_Angeles (UTC-8.0)
Stats Elevation 335 ft / 102 m (AMSL)
Location 36.776514° -119.718966°
Runways 2
Magnetic Variation 12.832° E

METAR

KFAT 111453Z 00000KT 3SM BR FEW100 SCT200 01/00 A3033 RMK AO2 SLP271 T00060000 53014

Decode

TAF

KFAT 111120Z 1112/1212 VRB03KT 4SM HZ SCT250

Decode

Departure Runways

ID Width Length Bearing (true) Bearing (mag) Surface Threshold Offset Overrun Length
11L 150 ft / 46 m 9,242 ft / 2,817 m 125.47° 112.64° Asphalt 0 ft / 0 m 1,066 ft / 325 m
11R 150 ft / 46 m 8,010 ft / 2,441 m 125.49° 112.66° Asphalt 0 ft / 0 m 1,001 ft / 305 m
29L 150 ft / 46 m 8,010 ft / 2,441 m 305.50° 292.67° Asphalt 0 ft / 0 m 1,001 ft / 305 m
29R 150 ft / 46 m 9,242 ft / 2,817 m 305.49° 292.66° Asphalt 312 ft / 95 m 850 ft / 259 m

KTVL

Details ICAO KTVL (TVL)
Name South Lake Tahoe
Region United States
Timezone America/Los_Angeles (UTC-8.0)
Stats Elevation 6,264 ft / 1,909 m (AMSL)
Location 38.893882° -119.995335°
Runways 1
Magnetic Variation 13.321° E

METAR

KTVL 111453Z AUTO 19004KT 10SM CLR M11/M13 A3050 RMK AO2 SLP372 T11111133 53007

Decode

TAF

KTVL 111126Z 1112/1212 VRB03KT P6SM SCT250 TEMPO 1119/1123 03007KT

Decode

Destination Runways

ID Width Length Bearing (true) Bearing (mag) Surface Threshold Offset Overrun Length
18 150 ft / 46 m 8,556 ft / 2,608 m 192.88° 179.56° Asphalt 0 ft / 0 m 0 ft / 0 m
36 150 ft / 46 m 8,556 ft / 2,608 m 12.88° 359.56° Asphalt 2,037 ft / 621 m 0 ft / 0 m

Approach Navaids

Runway Type Ident Frequency Range Bearing (true) Bearing (mag) Slope Elevation
18 Localiser ITVL 108.90 MHz 18 nm / 33 km 186.00° 172.68° - 6,264 ft / 1,909 m (AMSL)
18 DME ITVL 108.90 MHz 18 nm / 33 km - - - 6,264 ft / 1,909 m (AMSL)